Decoded Metar for KHDN (HAYDEN/YAMPA in CO, USA) (IATA:HDN) | Meteo·Mobile Aviation Weather
aviador You're here:

KHDN Decoded Metar

HAYDEN/YAMPA in CO, USA
Report Time2019-01-20 09:56:00
UTC Time2019-01-20 10:34:51
Flight Rules vfr VFR
Wind110° at 08 kt
W.Decomp.*RWY 10: 8.0 kt HW -0 kt LCW
W.Rank110° ranks 1
Current wind is below 110° avg. (8.1)
Visibility9999 m
Phenomena:N/A
Clouds:Broken 070 Hf
Overcast 090 Hf
Expected CloudBase > 1,200 ft AGL from Temp-Dew spread
Ceiling7,000 ft
Temp-4°C (ISA -6)
Dew Point-7°C (80% RH)
AAT-9.7°C
QNH1025 hPa
Density Alt5,548 ft
Elevation6,601 ft
Report Wrong Elevation
Raw Report
KHDN 200956Z AUTO 11008KT 10SM BKN070 OVC090 M04/M07 A3028 RMK AO2
SLP286 T10391067 FZRANO=

Extra information for KHDN:More info

Metar Taf Metar & Taf Last 4 Metars F.Rules Stats Wind Profile Meteogram Temp Stats Airport Information Weather charts Add Link Nearby VenuesMetar ALERT Operation Metar Decoded Social comments

AIRNAV info for KHDN